sensor_id;sensor_type;location;lat;lon;timestamp;temperature;humidity
68274;SHT30;55104;47.356;19.448;2022-07-12T00:01:33;12.76;66.76
68274;SHT30;55104;47.356;19.448;2022-07-12T00:04:35;12.77;66.32
68274;SHT30;55104;47.356;19.448;2022-07-12T00:07:37;12.72;66.57
68274;SHT30;55104;47.356;19.448;2022-07-12T00:10:39;12.61;66.63
68274;SHT30;55104;47.356;19.448;2022-07-12T00:13:41;12.57;66.90
68274;SHT30;55104;47.356;19.448;2022-07-12T00:16:43;12.53;67.23
68274;SHT30;55104;47.356;19.448;2022-07-12T00:19:45;12.48;67.73
68274;SHT30;55104;47.356;19.448;2022-07-12T00:22:47;12.46;67.93
68274;SHT30;55104;47.356;19.448;2022-07-12T00:25:50;12.43;68.19
68274;SHT30;55104;47.356;19.448;2022-07-12T00:28:52;12.43;68.10
68274;SHT30;55104;47.356;19.448;2022-07-12T00:31:54;12.46;67.79
68274;SHT30;55104;47.356;19.448;2022-07-12T00:34:56;12.42;68.01
68274;SHT30;55104;47.356;19.448;2022-07-12T00:37:58;12.42;68.05
68274;SHT30;55104;47.356;19.448;2022-07-12T00:41:00;12.35;68.26
68274;SHT30;55104;47.356;19.448;2022-07-12T00:44:02;12.33;68.60
68274;SHT30;55104;47.356;19.448;2022-07-12T00:47:05;12.26;69.12
68274;SHT30;55104;47.356;19.448;2022-07-12T00:50:15;12.17;69.19
68274;SHT30;55104;47.356;19.448;2022-07-12T00:53:17;12.13;69.69
68274;SHT30;55104;47.356;19.448;2022-07-12T00:56:25;12.07;69.39
68274;SHT30;55104;47.356;19.448;2022-07-12T00:59:27;12.04;69.34
68274;SHT30;55104;47.356;19.448;2022-07-12T01:02:29;12.01;69.53
68274;SHT30;55104;47.356;19.448;2022-07-12T01:05:31;11.97;69.49
68274;SHT30;55104;47.356;19.448;2022-07-12T01:08:34;11.94;69.31
68274;SHT30;55104;47.356;19.448;2022-07-12T01:11:37;11.91;69.58
68274;SHT30;55104;47.356;19.448;2022-07-12T01:14:40;11.91;69.47
68274;SHT30;55104;47.356;19.448;2022-07-12T01:17:44;11.86;69.42
68274;SHT30;55104;47.356;19.448;2022-07-12T01:20:54;11.83;69.66
68274;SHT30;55104;47.356;19.448;2022-07-12T01:23:56;11.81;70.00
68274;SHT30;55104;47.356;19.448;2022-07-12T01:26:59;11.77;70.21
68274;SHT30;55104;47.356;19.448;2022-07-12T01:30:03;11.73;70.53
68274;SHT30;55104;47.356;19.448;2022-07-12T01:33:05;11.70;70.66
68274;SHT30;55104;47.356;19.448;2022-07-12T01:36:07;11.71;70.92
68274;SHT30;55104;47.356;19.448;2022-07-12T01:39:10;11.67;71.05
68274;SHT30;55104;47.356;19.448;2022-07-12T01:42:12;11.65;71.11
68274;SHT30;55104;47.356;19.448;2022-07-12T01:45:14;11.59;71.00
68274;SHT30;55104;47.356;19.448;2022-07-12T01:48:17;11.59;71.21
68274;SHT30;55104;47.356;19.448;2022-07-12T01:51:21;11.56;71.52
68274;SHT30;55104;47.356;19.448;2022-07-12T01:54:26;11.52;71.98
68274;SHT30;55104;47.356;19.448;2022-07-12T01:57:28;11.50;71.87
68274;SHT30;55104;47.356;19.448;2022-07-12T02:00:31;11.46;72.06
68274;SHT30;55104;47.356;19.448;2022-07-12T02:03:36;11.46;71.64
68274;SHT30;55104;47.356;19.448;2022-07-12T02:06:39;11.44;71.84
68274;SHT30;55104;47.356;19.448;2022-07-12T02:09:41;11.49;71.74
68274;SHT30;55104;47.356;19.448;2022-07-12T02:12:43;11.47;71.76
68274;SHT30;55104;47.356;19.448;2022-07-12T02:15:45;11.42;71.86
68274;SHT30;55104;47.356;19.448;2022-07-12T02:18:47;11.39;72.02
68274;SHT30;55104;47.356;19.448;2022-07-12T02:21:49;11.36;72.12
68274;SHT30;55104;47.356;19.448;2022-07-12T02:24:51;11.35;72.69
68274;SHT30;55104;47.356;19.448;2022-07-12T02:27:53;11.35;72.15
68274;SHT30;55104;47.356;19.448;2022-07-12T02:30:55;11.33;72.41
68274;SHT30;55104;47.356;19.448;2022-07-12T02:33:57;11.31;72.56
68274;SHT30;55104;47.356;19.448;2022-07-12T02:36:59;11.28;72.46
68274;SHT30;55104;47.356;19.448;2022-07-12T02:40:02;11.28;72.70
68274;SHT30;55104;47.356;19.448;2022-07-12T02:43:27;11.32;72.73
68274;SHT30;55104;47.356;19.448;2022-07-12T02:46:29;11.33;72.48
68274;SHT30;55104;47.356;19.448;2022-07-12T02:49:31;11.31;72.81
68274;SHT30;55104;47.356;19.448;2022-07-12T02:52:34;11.26;72.88
68274;SHT30;55104;47.356;19.448;2022-07-12T02:55:37;11.21;73.00
68274;SHT30;55104;47.356;19.448;2022-07-12T02:58:39;11.23;73.09
68274;SHT30;55104;47.356;19.448;2022-07-12T03:01:41;11.22;72.79
68274;SHT30;55104;47.356;19.448;2022-07-12T03:04:43;11.22;73.14
68274;SHT30;55104;47.356;19.448;2022-07-12T03:07:45;11.22;72.99
68274;SHT30;55104;47.356;19.448;2022-07-12T03:10:47;11.21;72.81
68274;SHT30;55104;47.356;19.448;2022-07-12T03:13:49;11.22;72.76
68274;SHT30;55104;47.356;19.448;2022-07-12T03:16:51;11.25;73.03
68274;SHT30;55104;47.356;19.448;2022-07-12T03:19:53;11.28;73.07
68274;SHT30;55104;47.356;19.448;2022-07-12T03:22:55;11.23;73.00
68274;SHT30;55104;47.356;19.448;2022-07-12T03:25:57;11.23;72.95
68274;SHT30;55104;47.356;19.448;2022-07-12T03:28:59;11.26;73.28
68274;SHT30;55104;47.356;19.448;2022-07-12T03:32:04;11.31;73.39
68274;SHT30;55104;47.356;19.448;2022-07-12T03:35:08;11.42;73.17
68274;SHT30;55104;47.356;19.448;2022-07-12T03:38:10;11.50;72.99
68274;SHT30;55104;47.356;19.448;2022-07-12T03:41:12;11.53;73.34
68274;SHT30;55104;47.356;19.448;2022-07-12T03:44:14;11.58;73.26
68274;SHT30;55104;47.356;19.448;2022-07-12T03:47:16;11.67;72.72
68274;SHT30;55104;47.356;19.448;2022-07-12T03:50:18;11.80;72.33
68274;SHT30;55104;47.356;19.448;2022-07-12T03:53:20;11.74;72.58
68274;SHT30;55104;47.356;19.448;2022-07-12T03:56:22;11.66;72.78
68274;SHT30;55104;47.356;19.448;2022-07-12T03:59:43;11.73;72.68
68274;SHT30;55104;47.356;19.448;2022-07-12T04:02:46;11.81;72.70
68274;SHT30;55104;47.356;19.448;2022-07-12T04:05:48;11.91;72.57
68274;SHT30;55104;47.356;19.448;2022-07-12T04:08:50;12.02;72.09
68274;SHT30;55104;47.356;19.448;2022-07-12T04:11:52;12.10;71.96
68274;SHT30;55104;47.356;19.448;2022-07-12T04:14:54;12.15;72.16
68274;SHT30;55104;47.356;19.448;2022-07-12T04:17:56;12.20;71.54
68274;SHT30;55104;47.356;19.448;2022-07-12T04:20:58;12.17;71.82
68274;SHT30;55104;47.356;19.448;2022-07-12T04:24:00;12.31;71.50
68274;SHT30;55104;47.356;19.448;2022-07-12T04:27:02;12.41;71.26
68274;SHT30;55104;47.356;19.448;2022-07-12T04:30:05;12.45;71.47
68274;SHT30;55104;47.356;19.448;2022-07-12T04:33:07;12.64;71.01
68274;SHT30;55104;47.356;19.448;2022-07-12T04:36:09;12.90;70.03
68274;SHT30;55104;47.356;19.448;2022-07-12T04:39:11;13.05;69.82
68274;SHT30;55104;47.356;19.448;2022-07-12T04:42:13;13.22;69.21
68274;SHT30;55104;47.356;19.448;2022-07-12T04:45:15;13.41;69.37
68274;SHT30;55104;47.356;19.448;2022-07-12T04:48:17;13.67;68.53
68274;SHT30;55104;47.356;19.448;2022-07-12T04:51:19;13.86;67.99
68274;SHT30;55104;47.356;19.448;2022-07-12T04:54:21;14.01;67.33
68274;SHT30;55104;47.356;19.448;2022-07-12T04:57:23;14.25;66.93
68274;SHT30;55104;47.356;19.448;2022-07-12T05:00:25;14.32;67.09
68274;SHT30;55104;47.356;19.448;2022-07-12T05:03:27;14.56;66.19
68274;SHT30;55104;47.356;19.448;2022-07-12T05:06:29;14.72;65.20
68274;SHT30;55104;47.356;19.448;2022-07-12T05:09:31;14.91;65.18
68274;SHT30;55104;47.356;19.448;2022-07-12T05:12:36;15.06;64.88
68274;SHT30;55104;47.356;19.448;2022-07-12T05:15:38;15.30;64.76
68274;SHT30;55104;47.356;19.448;2022-07-12T05:18:40;15.83;62.90
68274;SHT30;55104;47.356;19.448;2022-07-12T05:21:42;16.27;62.58
68274;SHT30;55104;47.356;19.448;2022-07-12T05:24:44;16.71;60.85
68274;SHT30;55104;47.356;19.448;2022-07-12T05:27:46;17.52;58.01
68274;SHT30;55104;47.356;19.448;2022-07-12T05:30:48;18.17;55.63
68274;SHT30;55104;47.356;19.448;2022-07-12T05:33:50;18.95;53.34
68274;SHT30;55104;47.356;19.448;2022-07-12T05:36:52;19.92;50.79
68274;SHT30;55104;47.356;19.448;2022-07-12T05:39:54;21.34;47.25
68274;SHT30;55104;47.356;19.448;2022-07-12T05:42:56;21.40;45.90
68274;SHT30;55104;47.356;19.448;2022-07-12T05:45:59;22.22;45.46
68274;SHT30;55104;47.356;19.448;2022-07-12T05:49:02;22.67;44.44
68274;SHT30;55104;47.356;19.448;2022-07-12T05:52:04;22.41;44.65
68274;SHT30;55104;47.356;19.448;2022-07-12T05:55:25;21.54;45.93
68274;SHT30;55104;47.356;19.448;2022-07-12T05:58:27;22.26;45.60
68274;SHT30;55104;47.356;19.448;2022-07-12T06:01:29;22.84;44.92
68274;SHT30;55104;47.356;19.448;2022-07-12T06:04:31;22.58;44.19
68274;SHT30;55104;47.356;19.448;2022-07-12T06:07:33;22.74;44.40
68274;SHT30;55104;47.356;19.448;2022-07-12T06:10:35;22.90;44.34
68274;SHT30;55104;47.356;19.448;2022-07-12T06:13:38;22.63;44.32
68274;SHT30;55104;47.356;19.448;2022-07-12T06:16:40;22.50;44.09
68274;SHT30;55104;47.356;19.448;2022-07-12T06:19:42;21.64;45.12
68274;SHT30;55104;47.356;19.448;2022-07-12T06:22:44;21.46;46.31
68274;SHT30;55104;47.356;19.448;2022-07-12T06:25:46;21.06;47.98
68274;SHT30;55104;47.356;19.448;2022-07-12T06:28:56;20.82;48.40
68274;SHT30;55104;47.356;19.448;2022-07-12T06:31:58;20.71;48.49
68274;SHT30;55104;47.356;19.448;2022-07-12T06:35:00;20.72;48.83
68274;SHT30;55104;47.356;19.448;2022-07-12T06:38:02;20.82;48.63
68274;SHT30;55104;47.356;19.448;2022-07-12T06:41:04;20.85;47.97
68274;SHT30;55104;47.356;19.448;2022-07-12T06:44:06;21.03;48.36
68274;SHT30;55104;47.356;19.448;2022-07-12T06:47:09;21.05;46.78
68274;SHT30;55104;47.356;19.448;2022-07-12T06:50:12;21.20;46.91
68274;SHT30;55104;47.356;19.448;2022-07-12T06:53:14;21.29;46.15
68274;SHT30;55104;47.356;19.448;2022-07-12T06:56:16;21.40;46.11
68274;SHT30;55104;47.356;19.448;2022-07-12T06:59:18;21.47;46.22
68274;SHT30;55104;47.356;19.448;2022-07-12T07:02:20;21.59;45.19
68274;SHT30;55104;47.356;19.448;2022-07-12T07:05:23;21.51;45.83
68274;SHT30;55104;47.356;19.448;2022-07-12T07:08:25;21.54;45.04
68274;SHT30;55104;47.356;19.448;2022-07-12T07:11:27;21.82;47.04
68274;SHT30;55104;47.356;19.448;2022-07-12T07:14:29;21.99;44.43
68274;SHT30;55104;47.356;19.448;2022-07-12T07:17:31;22.19;45.24
68274;SHT30;55104;47.356;19.448;2022-07-12T07:20:33;22.02;43.67
68274;SHT30;55104;47.356;19.448;2022-07-12T07:23:35;22.24;43.85
68274;SHT30;55104;47.356;19.448;2022-07-12T07:26:37;22.43;43.48
68274;SHT30;55104;47.356;19.448;2022-07-12T07:29:39;22.61;42.09
68274;SHT30;55104;47.356;19.448;2022-07-12T07:33:00;22.39;42.46
68274;SHT30;55104;47.356;19.448;2022-07-12T07:36:02;22.44;42.33
68274;SHT30;55104;47.356;19.448;2022-07-12T07:39:04;22.67;41.91
68274;SHT30;55104;47.356;19.448;2022-07-12T07:42:06;22.74;41.15
68274;SHT30;55104;47.356;19.448;2022-07-12T07:45:09;22.64;41.43
68274;SHT30;55104;47.356;19.448;2022-07-12T07:48:19;22.69;40.69
68274;SHT30;55104;47.356;19.448;2022-07-12T07:51:25;22.61;41.00
68274;SHT30;55104;47.356;19.448;2022-07-12T07:54:27;22.83;41.32
68274;SHT30;55104;47.356;19.448;2022-07-12T07:57:29;23.19;40.55
68274;SHT30;55104;47.356;19.448;2022-07-12T08:00:31;23.29;40.96
68274;SHT30;55104;47.356;19.448;2022-07-12T08:03:33;23.18;41.49
68274;SHT30;55104;47.356;19.448;2022-07-12T08:06:35;23.18;41.40
68274;SHT30;55104;47.356;19.448;2022-07-12T08:09:38;22.75;41.01
68274;SHT30;55104;47.356;19.448;2022-07-12T08:12:40;23.02;40.35
68274;SHT30;55104;47.356;19.448;2022-07-12T08:15:42;23.38;41.62
68274;SHT30;55104;47.356;19.448;2022-07-12T08:18:44;23.51;40.32
68274;SHT30;55104;47.356;19.448;2022-07-12T08:21:46;23.73;39.38
68274;SHT30;55104;47.356;19.448;2022-07-12T08:24:48;23.73;40.20
68274;SHT30;55104;47.356;19.448;2022-07-12T08:27:50;23.85;39.69
68274;SHT30;55104;47.356;19.448;2022-07-12T08:30:53;23.88;40.71
68274;SHT30;55104;47.356;19.448;2022-07-12T08:33:55;23.85;40.32
68274;SHT30;55104;47.356;19.448;2022-07-12T08:36:57;23.53;40.77
68274;SHT30;55104;47.356;19.448;2022-07-12T08:39:59;23.93;39.49
68274;SHT30;55104;47.356;19.448;2022-07-12T08:43:01;24.15;40.03
68274;SHT30;55104;47.356;19.448;2022-07-12T08:46:07;24.67;39.36
68274;SHT30;55104;47.356;19.448;2022-07-12T08:49:10;24.88;36.91
68274;SHT30;55104;47.356;19.448;2022-07-12T08:52:27;24.44;38.17
68274;SHT30;55104;47.356;19.448;2022-07-12T08:55:32;24.37;37.87
68274;SHT30;55104;47.356;19.448;2022-07-12T08:58:35;24.70;37.51
68274;SHT30;55104;47.356;19.448;2022-07-12T09:01:48;25.21;36.08
68274;SHT30;55104;47.356;19.448;2022-07-12T09:05:22;25.32;35.71
68274;SHT30;55104;47.356;19.448;2022-07-12T09:08:26;25.46;35.10
68274;SHT30;55104;47.356;19.448;2022-07-12T09:11:28;25.32;34.97
68274;SHT30;55104;47.356;19.448;2022-07-12T09:14:30;25.38;35.06
68274;SHT30;55104;47.356;19.448;2022-07-12T09:17:35;24.90;36.06
68274;SHT30;55104;47.356;19.448;2022-07-12T09:20:37;24.84;35.97
68274;SHT30;55104;47.356;19.448;2022-07-12T09:23:51;25.25;34.57
68274;SHT30;55104;47.356;19.448;2022-07-12T09:26:59;25.04;35.71
68274;SHT30;55104;47.356;19.448;2022-07-12T09:30:01;25.32;35.16
68274;SHT30;55104;47.356;19.448;2022-07-12T09:33:07;25.47;34.47
68274;SHT30;55104;47.356;19.448;2022-07-12T09:36:27;24.87;35.60
68274;SHT30;55104;47.356;19.448;2022-07-12T09:39:29;24.52;35.63
68274;SHT30;55104;47.356;19.448;2022-07-12T09:42:32;24.32;36.33
68274;SHT30;55104;47.356;19.448;2022-07-12T09:45:35;24.30;36.60
68274;SHT30;55104;47.356;19.448;2022-07-12T09:48:37;24.25;36.03
68274;SHT30;55104;47.356;19.448;2022-07-12T09:51:42;24.52;35.61
68274;SHT30;55104;47.356;19.448;2022-07-12T09:54:45;25.01;35.73
68274;SHT30;55104;47.356;19.448;2022-07-12T09:57:48;25.14;35.11
68274;SHT30;55104;47.356;19.448;2022-07-12T10:00:53;24.52;35.11
68274;SHT30;55104;47.356;19.448;2022-07-12T10:03:56;25.22;35.76
68274;SHT30;55104;47.356;19.448;2022-07-12T10:07:00;25.67;34.16
68274;SHT30;55104;47.356;19.448;2022-07-12T10:10:03;26.43;32.99
68274;SHT30;55104;47.356;19.448;2022-07-12T10:13:06;26.48;32.20
68274;SHT30;55104;47.356;19.448;2022-07-12T10:16:08;26.82;32.83
68274;SHT30;55104;47.356;19.448;2022-07-12T10:19:28;26.05;31.92
68274;SHT30;55104;47.356;19.448;2022-07-12T10:22:31;26.45;33.44
68274;SHT30;55104;47.356;19.448;2022-07-12T10:25:34;27.10;31.98
68274;SHT30;55104;47.356;19.448;2022-07-12T10:29:01;26.62;30.50
68274;SHT30;55104;47.356;19.448;2022-07-12T10:32:26;27.39;31.56
68274;SHT30;55104;47.356;19.448;2022-07-12T10:35:30;27.69;29.78
68274;SHT30;55104;47.356;19.448;2022-07-12T10:38:33;27.67;30.20
68274;SHT30;55104;47.356;19.448;2022-07-12T10:41:36;27.83;31.03
68274;SHT30;55104;47.356;19.448;2022-07-12T10:44:40;27.80;30.31
68274;SHT30;55104;47.356;19.448;2022-07-12T10:47:57;27.28;30.80
68274;SHT30;55104;47.356;19.448;2022-07-12T10:50:59;26.52;31.60
68274;SHT30;55104;47.356;19.448;2022-07-12T10:54:20;26.05;31.88
68274;SHT30;55104;47.356;19.448;2022-07-12T10:57:40;27.06;31.77
68274;SHT30;55104;47.356;19.448;2022-07-12T11:00:43;27.15;31.14
68274;SHT30;55104;47.356;19.448;2022-07-12T11:04:05;26.76;31.60
68274;SHT30;55104;47.356;19.448;2022-07-12T11:07:08;26.69;31.39
68274;SHT30;55104;47.356;19.448;2022-07-12T11:10:12;25.76;33.13
68274;SHT30;55104;47.356;19.448;2022-07-12T11:13:22;25.50;33.25
68274;SHT30;55104;47.356;19.448;2022-07-12T11:16:28;25.19;32.69
68274;SHT30;55104;47.356;19.448;2022-07-12T11:19:31;25.70;33.46
68274;SHT30;55104;47.356;19.448;2022-07-12T11:22:33;26.21;33.61
68274;SHT30;55104;47.356;19.448;2022-07-12T11:25:35;27.00;32.10
68274;SHT30;55104;47.356;19.448;2022-07-12T11:28:38;27.08;32.07
68274;SHT30;55104;47.356;19.448;2022-07-12T11:31:40;26.86;32.25
68274;SHT30;55104;47.356;19.448;2022-07-12T11:34:43;27.23;31.68
68274;SHT30;55104;47.356;19.448;2022-07-12T11:37:53;27.30;32.46
68274;SHT30;55104;47.356;19.448;2022-07-12T11:41:00;26.90;30.99
68274;SHT30;55104;47.356;19.448;2022-07-12T11:44:03;26.88;31.31
68274;SHT30;55104;47.356;19.448;2022-07-12T11:47:05;26.15;32.39
68274;SHT30;55104;47.356;19.448;2022-07-12T11:50:07;25.54;33.96
68274;SHT30;55104;47.356;19.448;2022-07-12T11:53:23;24.86;35.56
68274;SHT30;55104;47.356;19.448;2022-07-12T11:56:29;24.33;36.85
68274;SHT30;55104;47.356;19.448;2022-07-12T11:59:35;24.42;36.97
68274;SHT30;55104;47.356;19.448;2022-07-12T12:02:37;25.21;35.78
68274;SHT30;55104;47.356;19.448;2022-07-12T12:05:39;25.86;35.43
68274;SHT30;55104;47.356;19.448;2022-07-12T12:08:42;26.43;34.30
68274;SHT30;55104;47.356;19.448;2022-07-12T12:11:45;26.77;33.78
68274;SHT30;55104;47.356;19.448;2022-07-12T12:14:47;26.94;33.11
68274;SHT30;55104;47.356;19.448;2022-07-12T12:18:06;26.31;33.63
68274;SHT30;55104;47.356;19.448;2022-07-12T12:21:10;25.97;34.11
68274;SHT30;55104;47.356;19.448;2022-07-12T12:24:14;26.43;34.04
68274;SHT30;55104;47.356;19.448;2022-07-12T12:27:23;26.17;34.53
68274;SHT30;55104;47.356;19.448;2022-07-12T12:30:28;26.33;34.17
68274;SHT30;55104;47.356;19.448;2022-07-12T12:33:35;26.49;34.37
68274;SHT30;55104;47.356;19.448;2022-07-12T12:36:38;27.04;33.04
68274;SHT30;55104;47.356;19.448;2022-07-12T12:39:40;26.35;33.51
68274;SHT30;55104;47.356;19.448;2022-07-12T12:42:43;26.56;33.09
68274;SHT30;55104;47.356;19.448;2022-07-12T12:45:49;26.90;33.20
68274;SHT30;55104;47.356;19.448;2022-07-12T12:48:52;26.80;32.98
68274;SHT30;55104;47.356;19.448;2022-07-12T12:51:56;26.63;33.04
68274;SHT30;55104;47.356;19.448;2022-07-12T12:54:58;26.98;32.54
68274;SHT30;55104;47.356;19.448;2022-07-12T12:58:00;26.66;33.86
68274;SHT30;55104;47.356;19.448;2022-07-12T13:01:04;26.25;33.62
68274;SHT30;55104;47.356;19.448;2022-07-12T13:04:08;26.15;33.56
68274;SHT30;55104;47.356;19.448;2022-07-12T13:07:11;26.55;31.07
68274;SHT30;55104;47.356;19.448;2022-07-12T13:10:14;26.94;31.52
68274;SHT30;55104;47.356;19.448;2022-07-12T13:13:16;27.23;29.79
68274;SHT30;55104;47.356;19.448;2022-07-12T13:16:20;27.24;30.25
68274;SHT30;55104;47.356;19.448;2022-07-12T13:19:22;27.20;29.65
68274;SHT30;55104;47.356;19.448;2022-07-12T13:22:24;27.49;27.39
68274;SHT30;55104;47.356;19.448;2022-07-12T13:25:26;27.41;25.86
68274;SHT30;55104;47.356;19.448;2022-07-12T13:28:28;27.25;24.55
68274;SHT30;55104;47.356;19.448;2022-07-12T13:31:30;27.48;26.60
68274;SHT30;55104;47.356;19.448;2022-07-12T13:34:32;27.49;25.66
68274;SHT30;55104;47.356;19.448;2022-07-12T13:37:36;27.39;25.90
68274;SHT30;55104;47.356;19.448;2022-07-12T13:40:38;27.63;27.36
68274;SHT30;55104;47.356;19.448;2022-07-12T13:43:40;27.61;26.53
68274;SHT30;55104;47.356;19.448;2022-07-12T13:46:42;27.42;26.17
68274;SHT30;55104;47.356;19.448;2022-07-12T13:49:45;27.06;26.24
68274;SHT30;55104;47.356;19.448;2022-07-12T13:52:47;27.27;26.80
68274;SHT30;55104;47.356;19.448;2022-07-12T13:55:49;27.59;27.32
68274;SHT30;55104;47.356;19.448;2022-07-12T13:58:52;27.76;26.56
68274;SHT30;55104;47.356;19.448;2022-07-12T14:01:54;27.45;27.17
68274;SHT30;55104;47.356;19.448;2022-07-12T14:04:57;27.63;27.02
68274;SHT30;55104;47.356;19.448;2022-07-12T14:08:00;28.07;27.33
68274;SHT30;55104;47.356;19.448;2022-07-12T14:11:02;28.29;26.08
68274;SHT30;55104;47.356;19.448;2022-07-12T14:14:05;28.13;25.88
68274;SHT30;55104;47.356;19.448;2022-07-12T14:17:06;27.93;25.64
68274;SHT30;55104;47.356;19.448;2022-07-12T14:20:13;28.40;24.63
68274;SHT30;55104;47.356;19.448;2022-07-12T14:23:15;28.25;24.90
68274;SHT30;55104;47.356;19.448;2022-07-12T14:26:17;28.28;24.92
68274;SHT30;55104;47.356;19.448;2022-07-12T14:29:19;28.33;25.29
68274;SHT30;55104;47.356;19.448;2022-07-12T14:32:21;28.38;24.49
68274;SHT30;55104;47.356;19.448;2022-07-12T14:35:23;28.11;24.87
68274;SHT30;55104;47.356;19.448;2022-07-12T14:38:26;28.08;24.54
68274;SHT30;55104;47.356;19.448;2022-07-12T14:41:28;27.94;24.80
68274;SHT30;55104;47.356;19.448;2022-07-12T14:44:30;28.04;24.34
68274;SHT30;55104;47.356;19.448;2022-07-12T14:47:32;28.10;24.52
68274;SHT30;55104;47.356;19.448;2022-07-12T14:50:34;28.29;25.38
68274;SHT30;55104;47.356;19.448;2022-07-12T14:53:36;28.55;25.03
68274;SHT30;55104;47.356;19.448;2022-07-12T14:56:38;28.61;23.87
68274;SHT30;55104;47.356;19.448;2022-07-12T14:59:40;28.01;24.81
68274;SHT30;55104;47.356;19.448;2022-07-12T15:02:42;28.20;24.81
68274;SHT30;55104;47.356;19.448;2022-07-12T15:05:51;28.27;25.05
68274;SHT30;55104;47.356;19.448;2022-07-12T15:08:53;28.40;25.08
68274;SHT30;55104;47.356;19.448;2022-07-12T15:11:55;27.12;25.88
68274;SHT30;55104;47.356;19.448;2022-07-12T15:14:58;26.80;26.71
68274;SHT30;55104;47.356;19.448;2022-07-12T15:17:59;26.07;27.84
68274;SHT30;55104;47.356;19.448;2022-07-12T15:21:03;26.80;27.50
68274;SHT30;55104;47.356;19.448;2022-07-12T15:24:05;27.32;27.24
68274;SHT30;55104;47.356;19.448;2022-07-12T15:27:07;27.65;26.76
68274;SHT30;55104;47.356;19.448;2022-07-12T15:30:10;27.65;26.66
68274;SHT30;55104;47.356;19.448;2022-07-12T15:33:12;26.94;26.64
68274;SHT30;55104;47.356;19.448;2022-07-12T15:36:14;27.28;27.29
68274;SHT30;55104;47.356;19.448;2022-07-12T15:39:16;27.28;25.74
68274;SHT30;55104;47.356;19.448;2022-07-12T15:42:18;27.23;26.59
68274;SHT30;55104;47.356;19.448;2022-07-12T15:45:20;27.27;26.59
68274;SHT30;55104;47.356;19.448;2022-07-12T15:48:22;27.41;26.29
68274;SHT30;55104;47.356;19.448;2022-07-12T15:51:24;27.03;24.83
68274;SHT30;55104;47.356;19.448;2022-07-12T15:54:46;27.10;25.66
68274;SHT30;55104;47.356;19.448;2022-07-12T15:57:48;26.97;24.91
68274;SHT30;55104;47.356;19.448;2022-07-12T16:00:51;27.04;24.78
68274;SHT30;55104;47.356;19.448;2022-07-12T16:03:53;26.97;24.98
68274;SHT30;55104;47.356;19.448;2022-07-12T16:07:05;27.24;24.96
68274;SHT30;55104;47.356;19.448;2022-07-12T16:10:08;26.98;24.54
68274;SHT30;55104;47.356;19.448;2022-07-12T16:13:10;26.57;24.20
68274;SHT30;55104;47.356;19.448;2022-07-12T16:16:12;26.26;24.66
68274;SHT30;55104;47.356;19.448;2022-07-12T16:19:14;26.20;24.30
68274;SHT30;55104;47.356;19.448;2022-07-12T16:22:16;26.51;24.63
68274;SHT30;55104;47.356;19.448;2022-07-12T16:25:19;26.52;25.30
68274;SHT30;55104;47.356;19.448;2022-07-12T16:28:21;26.39;25.30
68274;SHT30;55104;47.356;19.448;2022-07-12T16:31:23;26.29;25.88
68274;SHT30;55104;47.356;19.448;2022-07-12T16:34:45;26.39;25.90
68274;SHT30;55104;47.356;19.448;2022-07-12T16:37:47;26.43;26.01
68274;SHT30;55104;47.356;19.448;2022-07-12T16:40:49;26.21;25.68
68274;SHT30;55104;47.356;19.448;2022-07-12T16:43:51;25.98;26.21
68274;SHT30;55104;47.356;19.448;2022-07-12T16:46:53;25.93;27.01
68274;SHT30;55104;47.356;19.448;2022-07-12T16:49:55;25.96;26.51
68274;SHT30;55104;47.356;19.448;2022-07-12T16:52:57;25.83;26.81
68274;SHT30;55104;47.356;19.448;2022-07-12T16:55:59;25.83;26.86
68274;SHT30;55104;47.356;19.448;2022-07-12T16:59:02;25.65;27.44
68274;SHT30;55104;47.356;19.448;2022-07-12T17:02:04;25.54;27.25
68274;SHT30;55104;47.356;19.448;2022-07-12T17:05:07;25.26;27.29
68274;SHT30;55104;47.356;19.448;2022-07-12T17:08:12;25.32;28.01
68274;SHT30;55104;47.356;19.448;2022-07-12T17:11:15;25.16;27.83
68274;SHT30;55104;47.356;19.448;2022-07-12T17:14:17;25.11;27.98
68274;SHT30;55104;47.356;19.448;2022-07-12T17:17:21;25.07;28.52
68274;SHT30;55104;47.356;19.448;2022-07-12T17:20:25;24.92;29.57
68274;SHT30;55104;47.356;19.448;2022-07-12T17:23:28;24.91;29.93
68274;SHT30;55104;47.356;19.448;2022-07-12T17:26:50;24.70;31.71
68274;SHT30;55104;47.356;19.448;2022-07-12T17:29:54;24.60;32.54
68274;SHT30;55104;47.356;19.448;2022-07-12T17:33:00;24.43;32.96
68274;SHT30;55104;47.356;19.448;2022-07-12T17:36:05;24.39;33.44
68274;SHT30;55104;47.356;19.448;2022-07-12T17:39:08;24.43;33.31
68274;SHT30;55104;47.356;19.448;2022-07-12T17:42:10;24.19;34.16
68274;SHT30;55104;47.356;19.448;2022-07-12T17:45:12;24.08;34.30
68274;SHT30;55104;47.356;19.448;2022-07-12T17:48:17;23.94;34.44
68274;SHT30;55104;47.356;19.448;2022-07-12T17:51:19;23.85;34.91
68274;SHT30;55104;47.356;19.448;2022-07-12T17:54:21;23.61;35.58
68274;SHT30;55104;47.356;19.448;2022-07-12T17:57:23;23.57;35.63
68274;SHT30;55104;47.356;19.448;2022-07-12T18:00:25;23.42;35.72
68274;SHT30;55104;47.356;19.448;2022-07-12T18:03:27;23.33;36.29
68274;SHT30;55104;47.356;19.448;2022-07-12T18:06:29;23.24;36.83
68274;SHT30;55104;47.356;19.448;2022-07-12T18:09:31;23.11;37.42
68274;SHT30;55104;47.356;19.448;2022-07-12T18:12:33;22.94;37.73
68274;SHT30;55104;47.356;19.448;2022-07-12T18:15:55;22.78;37.94
68274;SHT30;55104;47.356;19.448;2022-07-12T18:18:57;22.69;38.20
68274;SHT30;55104;47.356;19.448;2022-07-12T18:21:59;22.57;38.29
68274;SHT30;55104;47.356;19.448;2022-07-12T18:25:01;22.58;38.62
68274;SHT30;55104;47.356;19.448;2022-07-12T18:28:03;22.40;38.88
68274;SHT30;55104;47.356;19.448;2022-07-12T18:31:06;22.33;38.88
68274;SHT30;55104;47.356;19.448;2022-07-12T18:34:08;22.37;38.80
68274;SHT30;55104;47.356;19.448;2022-07-12T18:37:10;22.16;39.14
68274;SHT30;55104;47.356;19.448;2022-07-12T18:40:12;22.06;39.30
68274;SHT30;55104;47.356;19.448;2022-07-12T18:43:14;21.99;39.64
68274;SHT30;55104;47.356;19.448;2022-07-12T18:46:17;21.89;40.11
68274;SHT30;55104;47.356;19.448;2022-07-12T18:49:20;21.75;40.16
68274;SHT30;55104;47.356;19.448;2022-07-12T18:52:22;21.61;40.61
68274;SHT30;55104;47.356;19.448;2022-07-12T18:55:26;21.58;40.64
68274;SHT30;55104;47.356;19.448;2022-07-12T18:58:28;21.47;41.20
68274;SHT30;55104;47.356;19.448;2022-07-12T19:01:30;21.34;41.22